Time;durP1;ratioP1;P1;durP2;ratioP2;P2;SDS_P1;SDS_P2;PMS_P1;PMS_P2;Temp;Humidity;BMP_temperature;BMP_pressure;BME280_temperature;BME280_humidity;BME280_pressure;Samples;Min_cycle;Max_cycle;Signal;HPM_P1;HPM_P2
2022/01/10 00:02:24;;;;;;;23.35;12.07;;;;;;;-0.13;100.00;100996.38;5088839;28;20391;-66
2022/01/10 00:04:50;;;;;;;27.45;12.40;;;;;;;-0.16;100.00;100995.78;5089384;28;20224;-66
2022/01/10 00:07:16;;;;;;;27.70;11.80;;;;;;;-0.15;100.00;100997.47;5089235;28;20028;-66
2022/01/10 00:09:41;;;;;;;28.15;13.45;;;;;;;-0.20;100.00;100997.81;5088249;28;20027;-66
2022/01/10 00:12:07;;;;;;;35.85;15.32;;;;;;;-0.18;100.00;100992.44;5087984;28;20038;-66
2022/01/10 00:14:32;;;;;;;27.48;13.70;;;;;;;-0.18;100.00;100992.44;5089241;28;20036;-66
2022/01/10 00:16:57;;;;;;;25.33;13.88;;;;;;;-0.19;100.00;100996.84;5087972;28;20127;-66
2022/01/10 00:19:24;;;;;;;24.50;12.60;;;;;;;-0.23;100.00;101008.56;5089206;28;20028;-66
2022/01/10 00:21:49;;;;;;;23.30;14.35;;;;;;;-0.21;100.00;101017.09;5089113;28;20032;-66
2022/01/10 00:24:14;;;;;;;31.52;13.93;;;;;;;-0.27;100.00;101015.00;5089270;28;20078;-66
2022/01/10 00:26:40;;;;;;;27.33;13.68;;;;;;;-0.23;100.00;101032.16;5089168;28;20043;-65
2022/01/10 00:29:05;;;;;;;36.08;14.82;;;;;;;-0.22;100.00;101028.56;5088504;28;20059;-66
2022/01/10 00:31:31;;;;;;;24.45;13.63;;;;;;;-0.29;100.00;101028.22;5088647;28;20032;-65
2022/01/10 00:33:56;;;;;;;25.40;13.02;;;;;;;-0.25;100.00;101034.88;5087610;28;20043;-66
2022/01/10 00:36:21;;;;;;;26.65;13.50;;;;;;;-0.32;100.00;101014.53;5089098;28;20063;-65
2022/01/10 00:38:47;;;;;;;24.13;13.43;;;;;;;-0.28;100.00;101026.44;5089079;28;20028;-66
2022/01/10 00:41:12;;;;;;;24.65;12.93;;;;;;;-0.34;100.00;101033.00;5089198;28;20032;-66
2022/01/10 00:43:45;;;;;;;22.63;12.55;;;;;;;-0.33;100.00;101033.84;5089196;28;20028;-66
2022/01/10 00:46:10;;;;;;;24.33;12.98;;;;;;;-0.35;100.00;101038.34;5088753;28;20036;-66
2022/01/10 00:48:36;;;;;;;25.65;12.02;;;;;;;-0.34;100.00;101042.63;5088262;28;20019;-66
2022/01/10 00:51:01;;;;;;;29.05;14.18;;;;;;;-0.38;100.00;101030.75;5088951;28;20127;-65
2022/01/10 00:53:26;;;;;;;33.78;14.38;;;;;;;-0.38;100.00;101046.47;5087484;28;20040;-66
2022/01/10 00:55:52;;;;;;;24.98;12.23;;;;;;;-0.36;100.00;101047.19;5088687;28;20123;-65
2022/01/10 00:58:17;;;;;;;26.25;14.32;;;;;;;-0.39;100.00;101048.25;5089017;28;20405;-66
2022/01/10 01:00:43;;;;;;;26.95;14.30;;;;;;;-0.41;100.00;101054.56;5088869;28;20523;-65
2022/01/10 01:03:09;;;;;;;23.15;12.20;;;;;;;-0.40;100.00;101070.16;5087186;28;20368;-65
2022/01/10 01:05:39;;;;;;;27.10;14.43;;;;;;;-0.42;100.00;101073.84;5088806;28;20040;-65
2022/01/10 01:08:07;;;;;;;26.13;12.98;;;;;;;-0.44;100.00;101084.47;5088773;28;20028;-65
2022/01/10 01:26:26;;;;;;;26.33;12.50;;;;;;;-0.67;100.00;101109.81;5091677;28;20034;-66
2022/01/10 01:28:51;;;;;;;21.33;11.27;;;;;;;-0.75;100.00;101105.16;5083498;28;20029;-66
2022/01/10 01:31:17;;;;;;;29.30;12.77;;;;;;;-0.84;100.00;101105.00;5072449;28;20546;-66
2022/01/10 01:33:42;;;;;;;20.77;11.98;;;;;;;-0.94;100.00;101108.34;5071001;28;20063;-66
2022/01/10 01:36:08;;;;;;;24.48;11.13;;;;;;;-1.00;100.00;101124.47;5072714;28;20090;-66
2022/01/10 01:38:34;;;;;;;23.67;12.60;;;;;;;-1.06;100.00;101137.22;5072665;28;20031;-66
2022/01/10 01:41:17;;;;;;;24.25;11.25;;;;;;;-1.13;100.00;101142.91;5072522;28;20028;-66
2022/01/10 01:43:43;;;;;;;22.02;10.95;;;;;;;-1.13;100.00;101153.38;5072462;28;20020;-66
2022/01/10 01:46:09;;;;;;;27.80;13.70;;;;;;;-1.13;100.00;101158.63;5071807;28;20033;-66
2022/01/10 01:48:34;;;;;;;29.02;14.63;;;;;;;-1.10;100.00;101160.19;5072064;28;20033;-66
2022/01/10 01:51:01;;;;;;;26.27;14.20;;;;;;;-1.07;100.00;101167.78;5071908;28;20097;-66
2022/01/10 01:53:27;;;;;;;44.55;17.30;;;;;;;-1.06;100.00;101152.91;5072174;28;20060;-65
2022/01/10 01:55:52;;;;;;;27.40;13.27;;;;;;;-1.02;100.00;101160.44;5072222;28;20115;-66
2022/01/10 01:58:17;;;;;;;24.50;13.23;;;;;;;-1.04;100.00;101153.66;5072021;28;20025;-66
2022/01/10 02:00:43;;;;;;;24.67;12.77;;;;;;;-1.01;100.00;101158.66;5072262;28;20450;-66
2022/01/10 02:03:08;;;;;;;22.75;11.85;;;;;;;-1.01;100.00;101171.72;5072271;28;20028;-66
2022/01/10 02:05:34;;;;;;;24.45;12.25;;;;;;;-1.02;100.00;101173.53;5072140;28;20047;-66
2022/01/10 02:07:59;;;;;;;25.83;12.25;;;;;;;-1.01;100.00;101177.78;5072003;28;20037;-66
2022/01/10 02:10:25;;;;;;;25.08;13.82;;;;;;;-0.98;100.00;101177.56;5071952;28;20032;-66
2022/01/10 02:12:50;;;;;;;24.52;14.65;;;;;;;-0.96;100.00;101185.31;5071973;28;20380;-65
2022/01/10 02:15:33;;;;;;;26.15;13.02;;;;;;;-0.96;100.00;101185.31;5071260;28;20139;-66
2022/01/10 02:18:00;;;;;;;24.52;12.88;;;;;;;-0.99;100.00;101180.31;5071987;28;20059;-66
2022/01/10 02:20:29;;;;;;;26.27;13.80;;;;;;;-0.98;100.00;101189.81;5071330;28;20025;-66
2022/01/10 02:22:54;;;;;;;29.10;13.35;;;;;;;-0.97;100.00;101191.47;5071652;28;20032;-66
2022/01/10 02:25:19;;;;;;;25.55;13.80;;;;;;;-1.01;100.00;101195.28;5086803;28;20024;-66
2022/01/10 02:27:45;;;;;;;47.03;16.08;;;;;;;-1.13;100.00;101191.78;5091048;28;20046;-66
2022/01/10 02:30:11;;;;;;;28.27;11.73;;;;;;;-1.18;100.00;101204.38;5091059;28;20048;-66
2022/01/10 02:32:37;;;;;;;26.25;14.05;;;;;;;-1.24;100.00;101200.41;5088838;28;20034;-66
2022/01/10 02:35:02;;;;;;;24.02;13.93;;;;;;;-1.28;100.00;101219.06;5090038;28;20032;-66
2022/01/10 02:37:35;;;;;;;27.40;13.25;;;;;;;-1.25;100.00;101219.69;5090850;28;20495;-66
2022/01/10 02:40:06;;;;;;;27.60;14.63;;;;;;;-1.24;100.00;101210.06;5090811;28;20063;-66
2022/01/10 02:42:32;;;;;;;26.90;14.18;;;;;;;-1.20;100.00;101227.22;5090883;28;20031;-66
2022/01/10 02:44:57;;;;;;;27.52;14.95;;;;;;;-1.16;100.00;101229.47;5090784;28;20020;-66
2022/01/10 02:47:23;;;;;;;33.13;16.08;;;;;;;-1.12;100.00;101240.56;5090277;28;20411;-66
2022/01/10 02:49:49;;;;;;;29.90;17.00;;;;;;;-1.10;100.00;101233.47;5090554;28;20032;-66
2022/01/10 02:52:14;;;;;;;30.83;16.55;;;;;;;-1.04;100.00;101240.84;5089576;28;20034;-66
2022/01/10 02:54:42;;;;;;;29.00;15.50;;;;;;;-1.03;100.00;101242.50;5090429;28;20035;-66
2022/01/10 02:57:07;;;;;;;30.05;15.82;;;;;;;-1.02;100.00;101246.81;5090327;28;20043;-66
2022/01/10 02:59:36;;;;;;;27.92;16.63;;;;;;;-0.99;100.00;101264.09;5090481;28;20391;-66
2022/01/10 03:02:02;;;;;;;34.67;14.57;;;;;;;-1.00;100.00;101255.38;5090297;28;20051;-65
2022/01/10 03:04:27;;;;;;;26.48;14.23;;;;;;;-1.10;100.00;101262.25;5090298;28;20036;-66
2022/01/10 03:06:53;;;;;;;29.23;16.30;;;;;;;-1.14;100.00;101276.47;5090371;28;20146;-66
2022/01/10 03:09:18;;;;;;;28.55;13.43;;;;;;;-1.17;100.00;101276.72;5090332;28;20035;-65
2022/01/10 03:11:44;;;;;;;26.10;14.52;;;;;;;-1.21;100.00;101275.25;5090041;28;20028;-65
2022/01/10 03:14:12;;;;;;;33.35;15.43;;;;;;;-1.25;100.00;101271.19;5090046;28;20479;-66
2022/01/10 03:16:37;;;;;;;28.10;14.90;;;;;;;-1.27;100.00;101273.91;5090118;28;20070;-66
2022/01/10 03:19:03;;;;;;;30.52;16.23;;;;;;;-1.27;100.00;101280.94;5090100;28;20643;-65
2022/01/10 03:21:28;;;;;;;33.47;13.30;;;;;;;-1.26;100.00;101301.72;5088846;28;20040;-65
2022/01/10 03:23:55;;;;;;;24.52;13.40;;;;;;;-1.23;100.00;101295.44;5088584;28;20046;-66
2022/01/10 03:26:21;;;;;;;26.98;15.70;;;;;;;-1.25;100.00;101286.91;5090096;28;20085;-66
2022/01/10 03:28:47;;;;;;;30.83;14.80;;;;;;;-1.23;100.00;101298.06;5089996;28;20515;-66
2022/01/10 03:31:13;;;;;;;32.55;14.18;;;;;;;-1.22;100.00;101297.13;5088309;28;20506;-66
2022/01/10 03:33:39;;;;;;;25.40;15.00;;;;;;;-1.15;100.00;101303.63;5089627;28;20111;-66
2022/01/10 03:36:05;;;;;;;27.73;15.32;;;;;;;-1.08;100.00;101309.22;5089321;28;20024;-66
2022/01/10 03:38:30;;;;;;;27.90;15.75;;;;;;;-1.00;100.00;101312.97;5089630;28;20039;-66
2022/01/10 03:40:55;;;;;;;38.70;17.67;;;;;;;-0.94;100.00;101325.63;5089685;28;20028;-65
2022/01/10 03:43:21;;;;;;;28.42;16.10;;;;;;;-0.86;100.00;101330.31;5089544;28;20024;-65
2022/01/10 03:45:46;;;;;;;27.20;14.27;;;;;;;-0.86;100.00;101329.44;5089304;28;20035;-66
2022/01/10 03:48:12;;;;;;;28.20;14.63;;;;;;;-0.82;100.00;101344.00;5088826;28;20530;-66
2022/01/10 03:50:37;;;;;;;35.97;16.02;;;;;;;-0.80;100.00;101345.56;5089380;28;20028;-65
2022/01/10 03:53:03;;;;;;;31.17;18.45;;;;;;;-0.80;100.00;101340.34;5089327;28;20114;-65
2022/01/10 03:55:29;;;;;;;31.58;14.75;;;;;;;-0.77;100.00;101334.88;5088679;28;20067;-65
2022/01/10 03:57:55;;;;;;;29.80;14.80;;;;;;;-0.69;100.00;101353.47;5089499;28;20069;-65
2022/01/10 04:00:20;;;;;;;38.70;15.05;;;;;;;-0.68;100.00;101362.19;5089532;28;20034;-66
2022/01/10 04:02:54;;;;;;;29.63;17.63;;;;;;;-0.70;100.00;101369.31;5088041;28;21057;-66
2022/01/10 04:05:19;;;;;;;32.70;16.30;;;;;;;-0.75;100.00;101374.06;5089599;28;20383;-66
2022/01/10 04:07:45;;;;;;;31.52;17.27;;;;;;;-0.79;100.00;101370.81;5089272;28;20039;-65
2022/01/10 04:10:10;;;;;;;25.00;13.77;;;;;;;-0.80;100.00;101374.38;5089242;28;20031;-66
2022/01/10 04:12:36;;;;;;;29.27;15.50;;;;;;;-0.79;100.00;101367.34;5089129;28;20028;-66
2022/01/10 04:15:01;;;;;;;29.30;16.05;;;;;;;-0.73;100.00;101385.25;5089048;28;20024;-66
2022/01/10 04:17:27;;;;;;;28.42;15.65;;;;;;;-0.69;100.00;101381.47;5089228;28;20111;-66
2022/01/10 04:19:52;;;;;;;28.80;14.52;;;;;;;-0.62;100.00;101382.69;5089224;28;20032;-66
2022/01/10 04:22:17;;;;;;;28.52;15.05;;;;;;;-0.60;100.00;101383.44;5089173;28;20028;-66
2022/01/10 04:24:43;;;;;;;29.35;15.85;;;;;;;-0.54;100.00;101387.38;5089136;28;20043;-66
2022/01/10 04:27:08;;;;;;;32.00;16.33;;;;;;;-0.54;100.00;101390.84;5089113;28;20105;-65
2022/01/10 04:29:34;;;;;;;32.25;17.33;;;;;;;-0.55;100.00;101394.41;5088933;28;20039;-66
2022/01/10 04:32:00;;;;;;;26.42;14.65;;;;;;;-0.55;100.00;101407.50;5089141;28;20032;-66
2022/01/10 04:34:26;;;;;;;29.77;16.35;;;;;;;-0.52;100.00;101406.47;5089311;28;20503;-65
2022/01/10 04:36:51;;;;;;;29.48;16.70;;;;;;;-0.49;100.00;101417.53;5089006;28;20024;-66
2022/01/10 04:39:17;;;;;;;29.00;16.60;;;;;;;-0.47;100.00;101417.44;5088633;28;20028;-66
2022/01/10 04:41:42;;;;;;;28.92;15.77;;;;;;;-0.43;100.00;101426.72;5088937;28;20020;-66
2022/01/10 04:44:08;;;;;;;28.40;17.00;;;;;;;-0.42;100.00;101425.78;5089054;28;20396;-66
2022/01/10 04:46:33;;;;;;;28.63;14.70;;;;;;;-0.39;100.00;101432.56;5088929;28;21006;-66
2022/01/10 04:49:00;;;;;;;27.70;15.65;;;;;;;-0.38;100.00;101436.88;5089065;28;20139;-66
2022/01/10 04:51:27;;;;;;;35.50;16.27;;;;;;;-0.37;100.00;101441.16;5089052;28;20059;-66
2022/01/10 04:53:53;;;;;;;31.05;15.20;;;;;;;-0.36;100.00;101448.09;5088495;28;20372;-65
2022/01/10 04:56:19;;;;;;;34.20;17.33;;;;;;;-0.33;100.00;101455.75;5088974;28;20028;-66
2022/01/10 04:58:47;;;;;;;32.50;16.80;;;;;;;-0.32;100.00;101447.75;5092701;28;20064;-65
2022/01/10 05:01:14;;;;;;;29.67;16.02;;;;;;;-0.30;100.00;101447.66;5091438;28;20028;-65
2022/01/10 05:03:40;;;;;;;26.63;16.65;;;;;;;-0.24;100.00;101473.41;5092821;28;20056;-65
2022/01/10 05:06:05;;;;;;;29.42;14.30;;;;;;;-0.22;100.00;101476.75;5092674;28;20024;-66
2022/01/10 05:08:31;;;;;;;29.77;18.20;;;;;;;-0.19;100.00;101494.03;5073229;28;20541;-66
2022/01/10 05:10:57;;;;;;;26.85;15.40;;;;;;;-0.17;100.00;101495.63;5072995;28;20533;-66
2022/01/10 05:13:23;;;;;;;30.88;17.23;;;;;;;-0.17;100.00;101513.97;5072847;28;20027;-66
2022/01/10 05:15:51;;;;;;;31.52;16.33;;;;;;;-0.15;100.00;101511.25;5073090;28;20082;-66
2022/01/10 05:18:19;;;;;;;25.75;14.77;;;;;;;-0.14;100.00;101505.03;5073067;28;20062;-66
2022/01/10 05:20:44;;;;;;;32.67;16.98;;;;;;;-0.18;100.00;101504.44;5072894;28;20036;-65
2022/01/10 05:23:11;;;;;;;30.58;17.25;;;;;;;-0.12;100.00;101506.59;5072876;28;20373;-66
2022/01/10 05:25:36;;;;;;;33.85;16.88;;;;;;;-0.11;100.00;101523.16;5072917;28;20064;-65
2022/01/10 05:28:06;;;;;;;32.72;17.33;;;;;;;-0.11;100.00;101534.47;5090390;28;20509;-66
2022/01/10 05:30:31;;;;;;;30.17;18.70;;;;;;;-0.09;100.00;101526.53;5090987;28;20035;-66
2022/01/10 05:32:57;;;;;;;38.80;16.95;;;;;;;-0.10;100.00;101532.72;5092038;28;20020;-65
2022/01/10 05:35:22;;;;;;;30.23;15.82;;;;;;;-0.06;100.00;101542.84;5091863;28;20021;-66
2022/01/10 05:37:47;;;;;;;28.42;15.65;;;;;;;-0.07;100.00;101543.81;5092001;28;20067;-66
2022/01/10 05:40:13;;;;;;;30.40;16.80;;;;;;;-0.12;100.00;101539.84;5091139;28;20051;-66
2022/01/10 05:42:38;;;;;;;23.67;15.10;;;;;;;-0.12;100.00;101552.97;5091929;28;20040;-66
2022/01/10 05:45:04;;;;;;;30.70;16.65;;;;;;;-0.04;100.00;101563.72;5089553;28;20066;-66
2022/01/10 05:47:32;;;;;;;31.48;18.05;;;;;;;-0.05;100.00;101573.38;5090681;28;20063;-66
2022/01/10 05:50:02;;;;;;;31.73;15.13;;;;;;;-0.03;100.00;101565.41;5072231;28;20055;-66
2022/01/10 05:52:28;;;;;;;30.75;17.35;;;;;;;-0.04;100.00;101575.06;5091894;28;20848;-66
2022/01/10 05:54:53;;;;;;;31.67;17.80;;;;;;;-0.01;100.00;101582.69;5091502;28;20046;-66
2022/01/10 05:57:19;;;;;;;32.90;16.30;;;;;;;-0.07;100.00;101580.53;5090940;28;20364;-65
2022/01/10 05:59:44;;;;;;;28.70;16.50;;;;;;;-0.08;100.00;101575.38;5091449;28;20030;-66
2022/01/10 06:02:09;;;;;;;26.08;15.13;;;;;;;-0.06;100.00;101581.34;5074246;28;20454;-66
2022/01/10 06:04:35;;;;;;;31.98;16.92;;;;;;;-0.07;100.00;101583.16;5091615;28;20106;-66
2022/01/10 06:07:00;;;;;;;27.42;15.55;;;;;;;-0.07;100.00;101593.63;5091443;28;20024;-66
2022/01/10 06:09:26;;;;;;;28.90;16.27;;;;;;;-0.18;100.00;101576.97;5091434;28;20105;-66
2022/01/10 06:11:51;;;;;;;30.27;15.95;;;;;;;-0.09;100.00;101597.31;5091349;28;20046;-65
2022/01/10 06:14:16;;;;;;;27.90;14.85;;;;;;;-0.08;100.00;101593.72;5089952;28;20188;-66
2022/01/10 06:16:42;;;;;;;34.58;18.80;;;;;;;-0.09;100.00;101597.31;5089888;28;20036;-66
2022/01/10 06:19:07;;;;;;;28.98;16.55;;;;;;;-0.12;100.00;101598.38;5091263;28;20028;-66
2022/01/10 06:21:33;;;;;;;37.83;16.15;;;;;;;-0.10;100.00;101604.34;5091240;28;20047;-67
2022/01/10 06:23:58;;;;;;;34.38;17.00;;;;;;;-0.07;100.00;101611.97;5091542;28;20028;-66
2022/01/10 06:26:24;;;;;;;29.27;16.38;;;;;;;-0.10;100.00;101617.44;5091118;28;20413;-66
2022/01/10 06:28:49;;;;;;;34.47;16.10;;;;;;;-0.05;100.00;101625.00;5091113;28;20036;-67
2022/01/10 06:31:15;;;;;;;29.65;16.40;;;;;;;-0.05;100.00;101628.44;5091049;28;20032;-66
2022/01/10 06:33:40;;;;;;;30.58;17.92;;;;;;;-0.03;100.00;101633.56;5090223;28;20386;-66
2022/01/10 06:36:08;;;;;;;30.05;19.08;;;;;;;-0.04;100.00;101637.97;5090600;28;20503;-66
2022/01/10 06:38:35;;;;;;;29.00;16.40;;;;;;;-0.01;100.00;101648.25;5090996;28;20582;-66
2022/01/10 06:41:00;;;;;;;30.05;17.58;;;;;;;-0.01;100.00;101660.53;5090396;28;20031;-66
2022/01/10 06:43:25;;;;;;;32.92;15.02;;;;;;;0.02;100.00;101657.69;5090624;28;20040;-66
2022/01/10 06:45:51;;;;;;;35.75;19.27;;;;;;;0.05;100.00;101664.50;5090743;28;20028;-66
2022/01/10 06:48:16;;;;;;;33.30;18.92;;;;;;;0.06;100.00;101666.19;5090176;28;20384;-66
2022/01/10 06:50:46;;;;;;;32.03;15.90;;;;;;;0.06;100.00;101666.19;5090317;28;20126;-66
2022/01/10 06:53:12;;;;;;;31.15;15.32;;;;;;;0.10;100.00;101675.50;5090371;28;20040;-66
2022/01/10 06:55:38;;;;;;;27.85;16.55;;;;;;;0.11;100.00;101677.19;5090273;28;20028;-66
2022/01/10 06:58:04;;;;;;;28.52;18.70;;;;;;;0.13;100.00;101691.03;5090154;28;20020;-66
2022/01/10 07:00:29;;;;;;;34.30;17.65;;;;;;;0.14;100.00;101688.31;5070160;28;20475;-67
2022/01/10 07:02:55;;;;;;;36.58;18.10;;;;;;;0.16;100.00;101694.28;5071003;28;20028;-66
2022/01/10 07:05:20;;;;;;;38.25;20.73;;;;;;;0.18;100.00;101691.53;5069616;28;20047;-66
2022/01/10 07:07:45;;;;;;;33.58;17.83;;;;;;;0.20;100.00;101705.38;5070871;28;20079;-66
2022/01/10 07:10:11;;;;;;;33.67;17.50;;;;;;;0.21;100.00;101714.94;5070758;28;20039;-66
2022/01/10 07:12:36;;;;;;;33.00;18.33;;;;;;;0.22;100.00;101721.88;5070862;28;20035;-66
2022/01/10 07:15:02;;;;;;;30.73;18.80;;;;;;;0.20;100.00;101723.75;5070575;28;20032;-66
2022/01/10 07:17:29;;;;;;;33.40;18.98;;;;;;;0.16;100.00;101715.28;5070840;28;20483;-66
2022/01/10 07:19:55;;;;;;;39.42;18.83;;;;;;;0.21;100.00;101736.78;5070257;28;20039;-66
2022/01/10 07:22:21;;;;;;;33.95;15.82;;;;;;;0.19;100.00;101737.81;5070642;28;20024;-66
2022/01/10 07:24:46;;;;;;;31.35;17.17;;;;;;;0.24;100.00;101747.97;5070075;28;20036;-66
2022/01/10 07:27:11;;;;;;;32.08;16.92;;;;;;;0.14;100.00;101745.16;5070335;28;20028;-66
2022/01/10 07:29:37;;;;;;;30.95;17.17;;;;;;;0.23;100.00;101755.00;5070529;28;20490;-66
2022/01/10 07:32:05;;;;;;;32.83;17.73;;;;;;;0.26;100.00;101757.41;5070352;28;20415;-66
2022/01/10 07:34:30;;;;;;;28.05;16.13;;;;;;;0.26;100.00;101767.91;5089843;28;20032;-66
2022/01/10 07:36:56;;;;;;;32.65;18.50;;;;;;;0.28;100.00;101767.81;5089595;28;20039;-66
2022/01/10 07:39:21;;;;;;;36.63;18.80;;;;;;;0.28;100.00;101773.06;5089676;28;20035;-66
2022/01/10 07:41:46;;;;;;;35.03;18.58;;;;;;;0.29;100.00;101780.84;5088401;28;20517;-66
2022/01/10 07:44:12;;;;;;;31.88;15.98;;;;;;;0.28;100.00;101776.50;5088915;28;20034;-66
2022/01/10 07:46:38;;;;;;;35.70;17.85;;;;;;;0.27;100.00;101782.72;5089141;28;20048;-66
2022/01/10 07:49:03;;;;;;;34.90;19.35;;;;;;;0.29;100.00;101790.47;5089431;28;20085;-66
2022/01/10 07:51:29;;;;;;;33.92;16.48;;;;;;;0.28;100.00;101788.81;5089562;28;20123;-66
2022/01/10 07:53:55;;;;;;;31.98;17.20;;;;;;;0.26;100.00;101814.28;5089451;28;20020;-66
2022/01/10 07:56:20;;;;;;;29.10;15.63;;;;;;;0.25;100.00;101812.63;5088188;28;20247;-66
2022/01/10 07:58:51;;;;;;;30.88;15.52;;;;;;;0.26;100.00;101811.66;5089395;28;20039;-66
2022/01/10 08:01:19;;;;;;;35.65;17.38;;;;;;;0.24;100.00;101811.78;5088757;28;20527;-66
2022/01/10 08:03:45;;;;;;;33.20;16.08;;;;;;;0.22;100.00;101827.63;5089216;28;20110;-67
2022/01/10 08:06:11;;;;;;;29.95;15.60;;;;;;;0.19;100.00;101829.63;5089341;28;20040;-66
2022/01/10 08:08:36;;;;;;;34.53;17.15;;;;;;;0.12;100.00;101834.44;5088200;28;20071;-66
2022/01/10 08:11:01;;;;;;;23.20;14.20;;;;;;;0.14;100.00;101843.06;5089299;28;20031;-67
2022/01/10 08:13:27;;;;;;;30.90;15.73;;;;;;;0.11;100.00;101843.28;5089030;28;20028;-66
2022/01/10 08:15:52;;;;;;;30.10;14.98;;;;;;;0.09;100.00;101849.56;5089131;28;20549;-66
2022/01/10 08:18:18;;;;;;;30.30;14.73;;;;;;;0.06;100.00;101841.91;5089236;28;20036;-66
2022/01/10 08:20:44;;;;;;;28.88;15.25;;;;;;;0.04;100.00;101855.09;5089054;28;20055;-66
2022/01/10 08:23:09;;;;;;;27.70;14.85;;;;;;;0.05;100.00;101862.03;5088995;28;20116;-66
2022/01/10 08:25:35;;;;;;;27.27;14.73;;;;;;;0.05;100.00;101867.25;5089186;28;20032;-66
2022/01/10 08:28:00;;;;;;;30.40;17.33;;;;;;;0.10;100.00;101878.28;5089133;28;20027;-66
2022/01/10 08:30:25;;;;;;;29.05;14.13;;;;;;;0.12;100.00;101876.41;5089191;28;20039;-66
2022/01/10 08:32:51;;;;;;;28.45;14.43;;;;;;;0.17;100.00;101881.34;5092751;28;20483;-70
2022/01/10 08:35:18;;;;;;;29.08;15.18;;;;;;;0.14;100.00;101881.56;5093236;28;20375;-66
2022/01/10 08:37:44;;;;;;;28.73;15.90;;;;;;;0.24;100.00;101900.13;5091682;28;20034;-67
2022/01/10 08:40:11;;;;;;;29.50;14.25;;;;;;;0.28;100.00;101906.84;5093264;28;20031;-66
2022/01/10 08:42:37;;;;;;;29.80;16.60;;;;;;;0.36;100.00;101918.50;5073626;28;20031;-66
2022/01/10 08:45:03;;;;;;;27.23;15.00;;;;;;;0.42;100.00;101925.97;5073421;28;20025;-66
2022/01/10 08:47:29;;;;;;;25.48;13.38;;;;;;;0.49;100.00;101925.56;5073323;28;20060;-67
2022/01/10 08:49:55;;;;;;;27.55;14.38;;;;;;;0.54;100.00;101934.78;5073457;28;20029;-66
2022/01/10 08:52:20;;;;;;;31.63;15.35;;;;;;;0.57;100.00;101937.19;5073492;28;20043;-66
2022/01/10 08:54:48;;;;;;;25.20;15.15;;;;;;;0.65;100.00;101942.78;5073345;28;20094;-67
2022/01/10 08:57:13;;;;;;;29.63;14.60;;;;;;;0.72;100.00;101952.88;5073291;28;20039;-66
2022/01/10 08:59:39;;;;;;;33.35;16.05;;;;;;;0.75;100.00;101953.47;5073264;28;20574;-66
2022/01/10 09:02:04;;;;;;;29.83;16.10;;;;;;;0.78;100.00;101957.69;5073853;28;20024;-65
2022/01/10 09:04:30;;;;;;;34.33;17.50;;;;;;;0.80;100.00;101972.38;5084488;28;20047;-66
2022/01/10 09:06:55;;;;;;;33.33;16.40;;;;;;;0.84;100.00;101965.16;5083857;28;20078;-66
2022/01/10 09:09:22;;;;;;;32.05;15.68;;;;;;;0.84;100.00;101970.41;5082576;28;20027;-67
2022/01/10 09:11:47;;;;;;;29.98;16.00;;;;;;;0.91;100.00;101981.31;5083524;28;20071;-70
2022/01/10 09:14:13;;;;;;;29.63;15.80;;;;;;;0.92;100.00;101982.97;5083464;28;20433;-68
2022/01/10 09:16:40;;;;;;;31.50;17.67;;;;;;;0.99;100.00;101987.72;5082400;28;20410;-66
2022/01/10 09:19:06;;;;;;;31.20;15.32;;;;;;;1.03;100.00;101989.19;5077723;28;20016;-68
2022/01/10 09:21:31;;;;;;;34.40;18.77;;;;;;;1.03;100.00;101983.09;5075929;28;20035;-68
2022/01/10 09:23:57;;;;;;;26.15;14.13;;;;;;;1.06;100.00;101990.78;5075826;28;20597;-67
2022/01/10 09:26:22;;;;;;;27.35;15.77;;;;;;;1.09;100.00;101990.53;5073714;28;20040;-69
2022/01/10 09:28:48;;;;;;;27.10;16.63;;;;;;;1.09;100.00;101998.44;5084853;28;20032;-67
2022/01/10 09:31:14;;;;;;;34.80;18.35;;;;;;;1.08;100.00;101996.75;5091626;28;20028;-67
2022/01/10 09:33:41;;;;;;;29.00;15.35;;;;;;;1.09;99.94;102001.06;5091464;28;20036;-67
2022/01/10 09:36:06;;;;;;;31.50;15.73;;;;;;;1.06;99.81;102001.28;5091942;28;20551;-67
2022/01/10 09:38:32;;;;;;;30.20;16.83;;;;;;;1.08;99.67;102004.66;5091924;28;20032;-70
2022/01/10 09:40:58;;;;;;;33.03;18.85;;;;;;;1.06;99.81;102007.38;5091888;28;20039;-67
2022/01/10 09:43:24;;;;;;;31.42;15.48;;;;;;;1.08;99.44;102012.53;5091554;28;20052;-67
2022/01/10 09:45:51;;;;;;;30.35;15.27;;;;;;;1.12;99.37;102010.50;5091853;28;20048;-66
2022/01/10 09:48:17;;;;;;;33.97;16.33;;;;;;;1.18;99.27;102017.97;5090591;28;20048;-67
2022/01/10 09:50:43;;;;;;;31.05;13.43;;;;;;;1.20;98.79;102018.69;5090731;28;20036;-67
2022/01/10 09:53:14;;;;;;;29.02;14.70;;;;;;;1.27;98.77;102023.41;5071290;28;20060;-67
2022/01/10 09:55:40;;;;;;;27.65;14.02;;;;;;;1.24;98.35;102021.00;5090676;28;20071;-67
2022/01/10 09:58:06;;;;;;;25.48;12.65;;;;;;;1.17;97.45;102030.25;5090530;28;20052;-67
2022/01/10 10:00:31;;;;;;;26.17;13.90;;;;;;;1.15;97.87;102040.03;5088640;28;20089;-67
2022/01/10 10:02:57;;;;;;;26.70;15.45;;;;;;;1.15;98.06;102042.66;5074196;28;20044;-66
2022/01/10 10:05:23;;;;;;;26.92;13.35;;;;;;;1.29;98.21;102054.88;5074286;28;20024;-67
2022/01/10 10:07:50;;;;;;;28.75;14.00;;;;;;;1.35;98.24;102051.81;5075173;28;20118;-67
2022/01/10 10:10:17;;;;;;;24.30;12.82;;;;;;;1.40;98.16;102056.75;5074799;28;20025;-67
2022/01/10 10:12:47;;;;;;;33.72;13.70;;;;;;;1.45;98.18;102059.91;5074021;28;20394;-67
2022/01/10 10:15:15;;;;;;;27.40;13.23;;;;;;;1.46;98.37;102059.78;5074146;28;20024;-67
2022/01/10 10:17:41;;;;;;;24.88;12.85;;;;;;;1.44;97.83;102069.56;5074367;28;20062;-67
2022/01/10 10:20:07;;;;;;;22.65;12.38;;;;;;;1.44;97.91;102073.97;5074955;28;20051;-66
2022/01/10 10:22:33;;;;;;;25.55;12.10;;;;;;;1.50;98.31;102076.19;5074685;28;21138;-67
2022/01/10 10:24:58;;;;;;;28.13;14.68;;;;;;;1.55;98.31;102076.72;5075179;28;20037;-67
2022/01/10 10:27:24;;;;;;;27.35;12.52;;;;;;;1.59;97.79;102080.78;5073663;28;20032;-67
2022/01/10 10:29:50;;;;;;;31.50;12.10;;;;;;;1.67;97.85;102098.66;5075617;28;20047;-67
2022/01/10 10:32:15;;;;;;;29.13;13.25;;;;;;;1.68;97.23;102087.22;5073929;28;20471;-67
2022/01/10 10:34:42;;;;;;;25.55;12.77;;;;;;;1.64;97.27;102083.94;5074102;28;20037;-67
2022/01/10 10:37:10;;;;;;;25.55;11.95;;;;;;;1.73;97.36;102098.25;5074160;28;20502;-67
2022/01/10 10:39:39;;;;;;;23.65;12.48;;;;;;;1.81;97.62;102100.31;5073938;28;20024;-67
2022/01/10 10:42:08;;;;;;;22.48;12.57;;;;;;;1.85;96.94;102102.63;5073552;28;20025;-67
2022/01/10 10:44:34;;;;;;;26.40;13.02;;;;;;;1.88;96.89;102109.44;5074871;28;20016;-67
2022/01/10 10:47:00;;;;;;;22.45;10.52;;;;;;;1.98;96.90;102127.09;5074173;28;20046;-67
2022/01/10 10:49:34;;;;;;;24.90;9.95;;;;;;;2.00;97.03;102124.38;5033390;28;1134100;-67
2022/01/10 10:52:03;;;;;;;23.48;10.25;;;;;;;2.07;96.98;102127.38;5074383;28;20032;-67
2022/01/10 10:54:31;;;;;;;25.73;10.02;;;;;;;1.99;95.47;102125.31;5074058;28;20027;-67
2022/01/10 10:56:59;;;;;;;21.88;9.50;;;;;;;1.87;96.10;102129.66;5074751;28;20032;-65
2022/01/10 10:59:29;;;;;;;21.45;9.63;;;;;;;1.83;96.33;102136.06;5075106;28;20016;-66
2022/01/10 11:01:55;;;;;;;21.92;10.23;;;;;;;1.80;95.85;102144.19;5073984;28;20058;-66
2022/01/10 11:04:20;;;;;;;21.95;10.73;;;;;;;1.75;95.94;102143.66;5074548;28;20032;-67
2022/01/10 11:06:46;;;;;;;21.30;9.98;;;;;;;1.72;95.83;102141.25;5074955;28;20028;-67
2022/01/10 11:09:13;;;;;;;20.02;11.15;;;;;;;1.70;95.60;102140.50;5073712;28;20459;-67
2022/01/10 11:11:43;;;;;;;19.92;8.23;;;;;;;1.69;95.95;102139.69;5074560;28;20036;-67
2022/01/10 11:14:11;;;;;;;24.30;11.90;;;;;;;1.69;95.69;102144.94;5073869;28;20025;-66
2022/01/10 11:16:39;;;;;;;23.88;12.15;;;;;;;1.70;96.25;102144.00;5073650;28;20499;-66
2022/01/10 11:19:18;;;;;;;31.67;13.32;;;;;;;1.63;95.48;102149.78;5075025;28;20020;-66